sensor_id;sensor_type;location;lat;lon;timestamp;P1;durP1;ratioP1;P2;durP2;ratioP2
10100;SDS011;5090;51.258;4.436;2023-09-18T00:02:02;14.07;;;10.95;;
10100;SDS011;5090;51.258;4.436;2023-09-18T00:04:30;17.05;;;11.73;;
10100;SDS011;5090;51.258;4.436;2023-09-18T00:06:58;14.15;;;10.90;;
10100;SDS011;5090;51.258;4.436;2023-09-18T00:09:26;13.52;;;12.10;;
10100;SDS011;5090;51.258;4.436;2023-09-18T00:11:54;14.40;;;11.27;;
10100;SDS011;5090;51.258;4.436;2023-09-18T00:14:23;13.00;;;11.48;;
10100;SDS011;5090;51.258;4.436;2023-09-18T00:16:51;13.62;;;11.02;;
10100;SDS011;5090;51.258;4.436;2023-09-18T00:19:19;15.50;;;10.85;;
10100;SDS011;5090;51.258;4.436;2023-09-18T00:21:47;17.35;;;11.43;;
10100;SDS011;5090;51.258;4.436;2023-09-18T00:24:15;14.60;;;11.15;;
10100;SDS011;5090;51.258;4.436;2023-09-18T00:26:44;13.52;;;11.55;;
10100;SDS011;5090;51.258;4.436;2023-09-18T00:29:12;13.05;;;10.68;;
10100;SDS011;5090;51.258;4.436;2023-09-18T00:31:40;14.45;;;11.30;;
10100;SDS011;5090;51.258;4.436;2023-09-18T00:34:08;16.60;;;11.38;;
10100;SDS011;5090;51.258;4.436;2023-09-18T00:36:37;18.17;;;10.50;;
10100;SDS011;5090;51.258;4.436;2023-09-18T00:39:05;13.23;;;10.93;;
10100;SDS011;5090;51.258;4.436;2023-09-18T00:41:33;12.60;;;10.82;;
10100;SDS011;5090;51.258;4.436;2023-09-18T00:44:02;10.77;;;9.68;;
10100;SDS011;5090;51.258;4.436;2023-09-18T00:46:30;14.40;;;11.15;;
10100;SDS011;5090;51.258;4.436;2023-09-18T00:48:58;10.93;;;9.85;;
10100;SDS011;5090;51.258;4.436;2023-09-18T00:51:26;17.67;;;9.55;;
10100;SDS011;5090;51.258;4.436;2023-09-18T00:53:55;13.35;;;9.10;;
10100;SDS011;5090;51.258;4.436;2023-09-18T00:56:23;13.55;;;9.63;;
10100;SDS011;5090;51.258;4.436;2023-09-18T00:58:51;13.13;;;10.90;;
10100;SDS011;5090;51.258;4.436;2023-09-18T01:01:19;13.32;;;11.30;;
10100;SDS011;5090;51.258;4.436;2023-09-18T01:03:50;14.18;;;10.10;;
10100;SDS011;5090;51.258;4.436;2023-09-18T01:06:18;13.82;;;10.27;;
10100;SDS011;5090;51.258;4.436;2023-09-18T01:08:47;11.18;;;9.02;;
10100;SDS011;5090;51.258;4.436;2023-09-18T01:13:51;12.10;;;8.65;;
10100;SDS011;5090;51.258;4.436;2023-09-18T01:16:20;11.45;;;8.88;;
10100;SDS011;5090;51.258;4.436;2023-09-18T01:18:49;11.18;;;8.98;;
10100;SDS011;5090;51.258;4.436;2023-09-18T01:21:19;11.52;;;9.35;;
10100;SDS011;5090;51.258;4.436;2023-09-18T01:23:47;9.73;;;8.20;;
10100;SDS011;5090;51.258;4.436;2023-09-18T01:26:15;11.60;;;9.18;;
10100;SDS011;5090;51.258;4.436;2023-09-18T01:28:44;11.45;;;8.45;;
10100;SDS011;5090;51.258;4.436;2023-09-18T01:31:12;11.75;;;9.27;;
10100;SDS011;5090;51.258;4.436;2023-09-18T01:33:40;10.55;;;8.40;;
10100;SDS011;5090;51.258;4.436;2023-09-18T01:36:08;13.27;;;9.15;;
10100;SDS011;5090;51.258;4.436;2023-09-18T01:38:37;14.13;;;8.48;;
10100;SDS011;5090;51.258;4.436;2023-09-18T01:41:05;11.90;;;8.90;;
10100;SDS011;5090;51.258;4.436;2023-09-18T01:43:33;16.00;;;10.18;;
10100;SDS011;5090;51.258;4.436;2023-09-18T01:46:02;10.75;;;9.10;;
10100;SDS011;5090;51.258;4.436;2023-09-18T01:48:32;9.75;;;8.45;;
10100;SDS011;5090;51.258;4.436;2023-09-18T01:51:00;11.63;;;8.90;;
10100;SDS011;5090;51.258;4.436;2023-09-18T01:53:28;11.27;;;8.30;;
10100;SDS011;5090;51.258;4.436;2023-09-18T01:55:57;14.43;;;8.00;;
10100;SDS011;5090;51.258;4.436;2023-09-18T01:58:29;12.50;;;8.75;;
10100;SDS011;5090;51.258;4.436;2023-09-18T02:01:01;11.10;;;8.18;;
10100;SDS011;5090;51.258;4.436;2023-09-18T02:03:29;14.40;;;8.57;;
10100;SDS011;5090;51.258;4.436;2023-09-18T02:06:02;11.60;;;8.13;;
10100;SDS011;5090;51.258;4.436;2023-09-18T02:08:30;8.93;;;7.82;;
10100;SDS011;5090;51.258;4.436;2023-09-18T02:10:58;16.35;;;8.48;;
10100;SDS011;5090;51.258;4.436;2023-09-18T02:13:27;15.70;;;8.27;;
10100;SDS011;5090;51.258;4.436;2023-09-18T02:15:55;16.95;;;8.50;;
10100;SDS011;5090;51.258;4.436;2023-09-18T02:18:23;10.27;;;8.82;;
10100;SDS011;5090;51.258;4.436;2023-09-18T02:20:51;9.98;;;8.30;;
10100;SDS011;5090;51.258;4.436;2023-09-18T02:23:19;14.55;;;8.80;;
10100;SDS011;5090;51.258;4.436;2023-09-18T02:25:54;14.00;;;9.52;;
10100;SDS011;5090;51.258;4.436;2023-09-18T02:28:16;14.48;;;10.27;;
10100;SDS011;5090;51.258;4.436;2023-09-18T02:30:44;18.67;;;10.95;;
10100;SDS011;5090;51.258;4.436;2023-09-18T02:33:12;13.68;;;9.85;;
10100;SDS011;5090;51.258;4.436;2023-09-18T02:35:40;13.02;;;10.00;;
10100;SDS011;5090;51.258;4.436;2023-09-18T02:38:09;15.95;;;10.20;;
10100;SDS011;5090;51.258;4.436;2023-09-18T02:40:37;12.55;;;10.32;;
10100;SDS011;5090;51.258;4.436;2023-09-18T02:43:05;18.05;;;10.43;;
10100;SDS011;5090;51.258;4.436;2023-09-18T02:45:33;14.93;;;10.45;;
10100;SDS011;5090;51.258;4.436;2023-09-18T02:48:02;15.05;;;10.70;;
10100;SDS011;5090;51.258;4.436;2023-09-18T02:50:30;11.90;;;9.43;;
10100;SDS011;5090;51.258;4.436;2023-09-18T02:52:58;14.20;;;9.43;;
10100;SDS011;5090;51.258;4.436;2023-09-18T02:55:30;12.80;;;9.60;;
10100;SDS011;5090;51.258;4.436;2023-09-18T02:57:58;11.23;;;9.38;;
10100;SDS011;5090;51.258;4.436;2023-09-18T03:00:26;11.35;;;9.00;;
10100;SDS011;5090;51.258;4.436;2023-09-18T03:02:55;15.90;;;9.45;;
10100;SDS011;5090;51.258;4.436;2023-09-18T03:05:23;16.08;;;9.38;;
10100;SDS011;5090;51.258;4.436;2023-09-18T03:07:51;15.18;;;9.43;;
10100;SDS011;5090;51.258;4.436;2023-09-18T03:10:19;15.93;;;8.40;;
10100;SDS011;5090;51.258;4.436;2023-09-18T03:12:48;11.55;;;8.80;;
10100;SDS011;5090;51.258;4.436;2023-09-18T03:15:16;10.75;;;7.93;;
10100;SDS011;5090;51.258;4.436;2023-09-18T03:17:44;12.18;;;7.47;;
10100;SDS011;5090;51.258;4.436;2023-09-18T03:20:12;15.52;;;7.18;;
10100;SDS011;5090;51.258;4.436;2023-09-18T03:22:41;11.50;;;7.65;;
10100;SDS011;5090;51.258;4.436;2023-09-18T03:25:09;12.50;;;7.43;;
10100;SDS011;5090;51.258;4.436;2023-09-18T03:27:37;12.70;;;7.90;;
10100;SDS011;5090;51.258;4.436;2023-09-18T03:30:06;11.52;;;6.78;;
10100;SDS011;5090;51.258;4.436;2023-09-18T03:32:34;13.13;;;6.93;;
10100;SDS011;5090;51.258;4.436;2023-09-18T03:35:03;14.90;;;6.57;;
10100;SDS011;5090;51.258;4.436;2023-09-18T03:37:31;11.68;;;6.07;;
10100;SDS011;5090;51.258;4.436;2023-09-18T03:39:59;9.40;;;5.57;;
10100;SDS011;5090;51.258;4.436;2023-09-18T03:42:27;9.23;;;6.20;;
10100;SDS011;5090;51.258;4.436;2023-09-18T03:44:55;9.98;;;5.93;;
10100;SDS011;5090;51.258;4.436;2023-09-18T03:47:24;9.15;;;5.85;;
10100;SDS011;5090;51.258;4.436;2023-09-18T03:49:52;8.43;;;6.15;;
10100;SDS011;5090;51.258;4.436;2023-09-18T03:52:20;14.05;;;6.80;;
10100;SDS011;5090;51.258;4.436;2023-09-18T03:54:48;8.27;;;6.47;;
10100;SDS011;5090;51.258;4.436;2023-09-18T03:57:16;9.07;;;6.25;;
10100;SDS011;5090;51.258;4.436;2023-09-18T03:59:45;9.38;;;5.68;;
10100;SDS011;5090;51.258;4.436;2023-09-18T04:02:13;8.60;;;5.70;;
10100;SDS011;5090;51.258;4.436;2023-09-18T04:04:41;8.02;;;5.70;;
10100;SDS011;5090;51.258;4.436;2023-09-18T04:07:09;9.20;;;6.40;;
10100;SDS011;5090;51.258;4.436;2023-09-18T04:09:37;7.95;;;5.45;;
10100;SDS011;5090;51.258;4.436;2023-09-18T04:12:06;7.90;;;5.57;;
10100;SDS011;5090;51.258;4.436;2023-09-18T04:14:34;7.28;;;5.35;;
10100;SDS011;5090;51.258;4.436;2023-09-18T04:17:02;10.40;;;5.40;;
10100;SDS011;5090;51.258;4.436;2023-09-18T04:19:30;8.65;;;5.15;;
10100;SDS011;5090;51.258;4.436;2023-09-18T04:21:59;6.12;;;4.60;;
10100;SDS011;5090;51.258;4.436;2023-09-18T04:24:27;9.27;;;4.80;;
10100;SDS011;5090;51.258;4.436;2023-09-18T04:26:55;6.68;;;4.68;;
10100;SDS011;5090;51.258;4.436;2023-09-18T04:29:23;6.80;;;4.10;;
10100;SDS011;5090;51.258;4.436;2023-09-18T04:31:51;5.90;;;4.60;;
10100;SDS011;5090;51.258;4.436;2023-09-18T04:34:20;6.47;;;4.35;;
10100;SDS011;5090;51.258;4.436;2023-09-18T04:36:48;8.57;;;4.45;;
10100;SDS011;5090;51.258;4.436;2023-09-18T04:39:16;8.45;;;4.57;;
10100;SDS011;5090;51.258;4.436;2023-09-18T04:41:44;9.18;;;4.45;;
10100;SDS011;5090;51.258;4.436;2023-09-18T04:44:13;7.82;;;4.28;;
10100;SDS011;5090;51.258;4.436;2023-09-18T04:46:41;5.78;;;3.75;;
10100;SDS011;5090;51.258;4.436;2023-09-18T04:49:09;5.62;;;3.67;;
10100;SDS011;5090;51.258;4.436;2023-09-18T04:51:38;8.10;;;4.00;;
10100;SDS011;5090;51.258;4.436;2023-09-18T04:54:06;5.05;;;3.67;;
10100;SDS011;5090;51.258;4.436;2023-09-18T04:56:34;5.97;;;3.67;;
10100;SDS011;5090;51.258;4.436;2023-09-18T04:59:03;4.28;;;3.00;;
10100;SDS011;5090;51.258;4.436;2023-09-18T05:01:31;4.68;;;2.70;;
10100;SDS011;5090;51.258;4.436;2023-09-18T05:03:59;5.70;;;2.72;;
10100;SDS011;5090;51.258;4.436;2023-09-18T05:06:27;3.28;;;2.70;;
10100;SDS011;5090;51.258;4.436;2023-09-18T05:08:56;4.72;;;2.80;;
10100;SDS011;5090;51.258;4.436;2023-09-18T05:11:24;3.55;;;2.70;;
10100;SDS011;5090;51.258;4.436;2023-09-18T05:13:52;3.75;;;2.67;;
10100;SDS011;5090;51.258;4.436;2023-09-18T05:16:21;4.45;;;2.70;;
10100;SDS011;5090;51.258;4.436;2023-09-18T05:18:49;4.00;;;2.50;;
10100;SDS011;5090;51.258;4.436;2023-09-18T05:21:17;5.70;;;2.60;;
10100;SDS011;5090;51.258;4.436;2023-09-18T05:23:45;6.12;;;2.90;;
10100;SDS011;5090;51.258;4.436;2023-09-18T05:26:14;5.87;;;2.83;;
10100;SDS011;5090;51.258;4.436;2023-09-18T05:28:42;4.68;;;2.55;;
10100;SDS011;5090;51.258;4.436;2023-09-18T05:31:11;3.62;;;2.58;;
10100;SDS011;5090;51.258;4.436;2023-09-18T05:33:42;3.78;;;2.75;;
10100;SDS011;5090;51.258;4.436;2023-09-18T05:36:10;3.37;;;2.72;;
10100;SDS011;5090;51.258;4.436;2023-09-18T05:38:38;3.70;;;2.95;;
10100;SDS011;5090;51.258;4.436;2023-09-18T05:41:07;5.12;;;3.05;;
10100;SDS011;5090;51.258;4.436;2023-09-18T05:43:35;5.87;;;3.40;;
10100;SDS011;5090;51.258;4.436;2023-09-18T05:46:03;5.10;;;3.40;;
10100;SDS011;5090;51.258;4.436;2023-09-18T05:48:31;7.50;;;3.75;;
10100;SDS011;5090;51.258;4.436;2023-09-18T05:51:00;7.72;;;3.45;;
10100;SDS011;5090;51.258;4.436;2023-09-18T05:53:28;7.78;;;3.80;;
10100;SDS011;5090;51.258;4.436;2023-09-18T05:55:56;7.15;;;4.18;;
10100;SDS011;5090;51.258;4.436;2023-09-18T05:58:25;8.07;;;3.50;;
10100;SDS011;5090;51.258;4.436;2023-09-18T06:00:53;5.18;;;2.67;;
10100;SDS011;5090;51.258;4.436;2023-09-18T06:03:21;5.70;;;2.72;;
10100;SDS011;5090;51.258;4.436;2023-09-18T06:05:49;10.68;;;3.33;;
10100;SDS011;5090;51.258;4.436;2023-09-18T06:08:18;5.30;;;2.90;;
10100;SDS011;5090;51.258;4.436;2023-09-18T06:10:46;3.55;;;2.55;;
10100;SDS011;5090;51.258;4.436;2023-09-18T06:13:19;5.82;;;2.45;;
10100;SDS011;5090;51.258;4.436;2023-09-18T06:15:48;5.30;;;2.72;;
10100;SDS011;5090;51.258;4.436;2023-09-18T06:18:16;5.50;;;2.65;;
10100;SDS011;5090;51.258;4.436;2023-09-18T06:20:44;3.75;;;2.30;;
10100;SDS011;5090;51.258;4.436;2023-09-18T06:23:13;5.87;;;2.10;;
10100;SDS011;5090;51.258;4.436;2023-09-18T06:25:41;6.22;;;2.45;;
10100;SDS011;5090;51.258;4.436;2023-09-18T06:28:09;5.60;;;2.42;;
10100;SDS011;5090;51.258;4.436;2023-09-18T06:30:37;4.28;;;2.20;;
10100;SDS011;5090;51.258;4.436;2023-09-18T06:33:06;4.50;;;2.33;;
10100;SDS011;5090;51.258;4.436;2023-09-18T06:35:34;5.03;;;2.95;;
10100;SDS011;5090;51.258;4.436;2023-09-18T06:38:02;3.92;;;2.58;;
10100;SDS011;5090;51.258;4.436;2023-09-18T06:40:30;5.05;;;2.58;;
10100;SDS011;5090;51.258;4.436;2023-09-18T06:42:59;4.10;;;2.60;;
10100;SDS011;5090;51.258;4.436;2023-09-18T06:45:28;4.05;;;2.65;;
10100;SDS011;5090;51.258;4.436;2023-09-18T06:47:56;8.32;;;3.10;;
10100;SDS011;5090;51.258;4.436;2023-09-18T06:50:24;7.05;;;2.75;;
10100;SDS011;5090;51.258;4.436;2023-09-18T06:52:52;4.45;;;1.92;;
10100;SDS011;5090;51.258;4.436;2023-09-18T06:55:21;3.30;;;2.17;;
10100;SDS011;5090;51.258;4.436;2023-09-18T06:57:49;6.00;;;2.45;;
10100;SDS011;5090;51.258;4.436;2023-09-18T07:00:17;3.92;;;2.37;;
10100;SDS011;5090;51.258;4.436;2023-09-18T07:02:46;4.95;;;2.03;;
10100;SDS011;5090;51.258;4.436;2023-09-18T07:05:14;6.62;;;2.17;;
10100;SDS011;5090;51.258;4.436;2023-09-18T07:07:43;5.03;;;2.58;;
10100;SDS011;5090;51.258;4.436;2023-09-18T07:10:11;7.55;;;2.72;;
10100;SDS011;5090;51.258;4.436;2023-09-18T07:12:39;5.18;;;2.00;;
10100;SDS011;5090;51.258;4.436;2023-09-18T07:15:08;4.53;;;2.20;;
10100;SDS011;5090;51.258;4.436;2023-09-18T07:17:36;5.90;;;2.45;;
10100;SDS011;5090;51.258;4.436;2023-09-18T07:20:04;2.80;;;2.20;;
10100;SDS011;5090;51.258;4.436;2023-09-18T07:22:36;4.60;;;2.20;;
10100;SDS011;5090;51.258;4.436;2023-09-18T07:25:05;3.00;;;2.10;;
10100;SDS011;5090;51.258;4.436;2023-09-18T07:27:33;4.07;;;2.35;;
10100;SDS011;5090;51.258;4.436;2023-09-18T07:30:01;5.85;;;2.33;;
10100;SDS011;5090;51.258;4.436;2023-09-18T07:32:30;5.65;;;2.28;;
10100;SDS011;5090;51.258;4.436;2023-09-18T07:34:58;3.20;;;2.10;;
10100;SDS011;5090;51.258;4.436;2023-09-18T07:37:26;7.25;;;2.37;;
10100;SDS011;5090;51.258;4.436;2023-09-18T07:39:55;3.90;;;2.08;;
10100;SDS011;5090;51.258;4.436;2023-09-18T07:42:25;6.05;;;2.30;;
10100;SDS011;5090;51.258;4.436;2023-09-18T07:44:52;2.87;;;2.25;;
10100;SDS011;5090;51.258;4.436;2023-09-18T07:47:20;4.93;;;2.30;;
10100;SDS011;5090;51.258;4.436;2023-09-18T07:49:48;4.35;;;1.75;;
10100;SDS011;5090;51.258;4.436;2023-09-18T07:52:17;6.35;;;1.65;;
10100;SDS011;5090;51.258;4.436;2023-09-18T07:54:45;4.70;;;1.77;;
10100;SDS011;5090;51.258;4.436;2023-09-18T07:57:13;3.03;;;2.72;;
10100;SDS011;5090;51.258;4.436;2023-09-18T07:59:41;4.82;;;1.90;;
10100;SDS011;5090;51.258;4.436;2023-09-18T08:02:09;4.37;;;2.10;;
10100;SDS011;5090;51.258;4.436;2023-09-18T08:04:38;4.35;;;1.92;;
10100;SDS011;5090;51.258;4.436;2023-09-18T08:07:06;4.32;;;2.12;;
10100;SDS011;5090;51.258;4.436;2023-09-18T08:09:34;5.62;;;2.50;;
10100;SDS011;5090;51.258;4.436;2023-09-18T08:12:03;5.43;;;2.37;;
10100;SDS011;5090;51.258;4.436;2023-09-18T08:14:31;3.05;;;2.30;;
10100;SDS011;5090;51.258;4.436;2023-09-18T08:17:00;4.57;;;2.50;;
10100;SDS011;5090;51.258;4.436;2023-09-18T08:19:28;7.75;;;2.95;;
10100;SDS011;5090;51.258;4.436;2023-09-18T08:21:56;3.62;;;2.85;;
10100;SDS011;5090;51.258;4.436;2023-09-18T08:24:24;4.40;;;2.80;;
10100;SDS011;5090;51.258;4.436;2023-09-18T08:26:52;6.95;;;2.87;;
10100;SDS011;5090;51.258;4.436;2023-09-18T08:29:21;7.05;;;3.05;;
10100;SDS011;5090;51.258;4.436;2023-09-18T08:31:49;3.60;;;2.65;;
10100;SDS011;5090;51.258;4.436;2023-09-18T08:34:17;6.43;;;2.87;;
10100;SDS011;5090;51.258;4.436;2023-09-18T08:36:45;8.27;;;3.17;;
10100;SDS011;5090;51.258;4.436;2023-09-18T08:39:13;6.22;;;2.97;;
10100;SDS011;5090;51.258;4.436;2023-09-18T08:41:42;9.70;;;3.45;;
10100;SDS011;5090;51.258;4.436;2023-09-18T08:44:10;6.30;;;2.90;;
10100;SDS011;5090;51.258;4.436;2023-09-18T08:46:38;8.57;;;3.50;;
10100;SDS011;5090;51.258;4.436;2023-09-18T08:49:06;7.43;;;3.28;;
10100;SDS011;5090;51.258;4.436;2023-09-18T08:51:34;5.35;;;3.33;;
10100;SDS011;5090;51.258;4.436;2023-09-18T08:54:03;5.55;;;3.17;;
10100;SDS011;5090;51.258;4.436;2023-09-18T08:56:31;8.15;;;3.40;;
10100;SDS011;5090;51.258;4.436;2023-09-18T08:59:00;6.57;;;3.10;;
10100;SDS011;5090;51.258;4.436;2023-09-18T09:01:27;7.55;;;3.08;;
10100;SDS011;5090;51.258;4.436;2023-09-18T09:03:55;5.28;;;3.25;;
10100;SDS011;5090;51.258;4.436;2023-09-18T09:06:23;9.73;;;3.03;;
10100;SDS011;5090;51.258;4.436;2023-09-18T09:08:51;8.57;;;3.83;;
10100;SDS011;5090;51.258;4.436;2023-09-18T09:11:20;6.82;;;3.33;;
10100;SDS011;5090;51.258;4.436;2023-09-18T09:13:49;7.28;;;3.05;;
10100;SDS011;5090;51.258;4.436;2023-09-18T09:16:16;6.57;;;2.80;;
10100;SDS011;5090;51.258;4.436;2023-09-18T09:18:48;6.53;;;3.25;;
10100;SDS011;5090;51.258;4.436;2023-09-18T09:21:15;7.97;;;3.65;;
10100;SDS011;5090;51.258;4.436;2023-09-18T09:23:46;8.40;;;3.17;;
10100;SDS011;5090;51.258;4.436;2023-09-18T09:26:14;8.27;;;3.17;;
10100;SDS011;5090;51.258;4.436;2023-09-18T09:28:42;9.32;;;3.40;;
10100;SDS011;5090;51.258;4.436;2023-09-18T09:31:10;8.55;;;3.60;;
10100;SDS011;5090;51.258;4.436;2023-09-18T09:33:38;7.10;;;3.75;;
10100;SDS011;5090;51.258;4.436;2023-09-18T09:36:06;7.15;;;4.00;;
10100;SDS011;5090;51.258;4.436;2023-09-18T09:38:34;8.95;;;4.50;;
10100;SDS011;5090;51.258;4.436;2023-09-18T09:41:03;5.72;;;4.15;;
10100;SDS011;5090;51.258;4.436;2023-09-18T09:43:31;12.13;;;4.37;;
10100;SDS011;5090;51.258;4.436;2023-09-18T09:46:00;9.00;;;4.97;;
10100;SDS011;5090;51.258;4.436;2023-09-18T09:48:28;9.23;;;5.07;;
10100;SDS011;5090;51.258;4.436;2023-09-18T09:50:58;7.70;;;4.97;;
10100;SDS011;5090;51.258;4.436;2023-09-18T09:55:59;6.97;;;4.75;;
10100;SDS011;5090;51.258;4.436;2023-09-18T09:58:27;10.73;;;4.97;;
10100;SDS011;5090;51.258;4.436;2023-09-18T10:00:56;6.37;;;4.57;;
10100;SDS011;5090;51.258;4.436;2023-09-18T10:03:25;6.82;;;4.50;;
10100;SDS011;5090;51.258;4.436;2023-09-18T10:05:53;5.75;;;4.25;;
10100;SDS011;5090;51.258;4.436;2023-09-18T10:08:22;7.15;;;4.80;;
10100;SDS011;5090;51.258;4.436;2023-09-18T10:10:50;9.35;;;4.35;;
10100;SDS011;5090;51.258;4.436;2023-09-18T10:13:23;6.05;;;4.60;;
10100;SDS011;5090;51.258;4.436;2023-09-18T10:15:49;8.43;;;4.55;;
10100;SDS011;5090;51.258;4.436;2023-09-18T10:18:18;5.12;;;4.12;;
10100;SDS011;5090;51.258;4.436;2023-09-18T10:20:45;7.50;;;4.05;;
10100;SDS011;5090;51.258;4.436;2023-09-18T10:23:18;11.27;;;4.50;;
10100;SDS011;5090;51.258;4.436;2023-09-18T10:25:42;9.57;;;3.90;;
10100;SDS011;5090;51.258;4.436;2023-09-18T10:28:10;6.75;;;3.95;;
10100;SDS011;5090;51.258;4.436;2023-09-18T10:30:39;6.62;;;3.87;;
10100;SDS011;5090;51.258;4.436;2023-09-18T10:33:07;7.60;;;4.30;;
10100;SDS011;5090;51.258;4.436;2023-09-18T10:35:35;6.43;;;4.57;;
10100;SDS011;5090;51.258;4.436;2023-09-18T10:38:03;8.55;;;4.20;;
10100;SDS011;5090;51.258;4.436;2023-09-18T10:40:31;6.18;;;3.92;;
10100;SDS011;5090;51.258;4.436;2023-09-18T10:43:04;8.77;;;4.30;;
10100;SDS011;5090;51.258;4.436;2023-09-18T10:45:32;7.80;;;4.32;;
10100;SDS011;5090;51.258;4.436;2023-09-18T10:48:00;11.27;;;3.97;;
10100;SDS011;5090;51.258;4.436;2023-09-18T10:50:28;4.70;;;3.62;;
10100;SDS011;5090;51.258;4.436;2023-09-18T10:52:57;4.57;;;3.65;;
10100;SDS011;5090;51.258;4.436;2023-09-18T10:55:25;7.12;;;3.60;;
10100;SDS011;5090;51.258;4.436;2023-09-18T10:57:53;8.57;;;4.43;;
10100;SDS011;5090;51.258;4.436;2023-09-18T11:00:21;5.70;;;3.17;;
10100;SDS011;5090;51.258;4.436;2023-09-18T11:02:51;7.85;;;3.53;;
10100;SDS011;5090;51.258;4.436;2023-09-18T11:08:16;5.90;;;3.33;;
10100;SDS011;5090;51.258;4.436;2023-09-18T11:10:25;6.75;;;2.87;;
10100;SDS011;5090;51.258;4.436;2023-09-18T11:12:53;7.05;;;2.95;;
10100;SDS011;5090;51.258;4.436;2023-09-18T11:15:26;7.50;;;3.17;;
10100;SDS011;5090;51.258;4.436;2023-09-18T11:17:58;7.53;;;3.00;;
10100;SDS011;5090;51.258;4.436;2023-09-18T11:20:26;7.45;;;2.78;;
10100;SDS011;5090;51.258;4.436;2023-09-18T11:22:55;7.55;;;2.70;;
10100;SDS011;5090;51.258;4.436;2023-09-18T11:25:40;5.05;;;2.50;;
10100;SDS011;5090;51.258;4.436;2023-09-18T11:28:12;6.32;;;2.47;;
10100;SDS011;5090;51.258;4.436;2023-09-18T11:30:36;7.25;;;2.47;;
10100;SDS011;5090;51.258;4.436;2023-09-18T11:33:05;7.20;;;2.87;;
10100;SDS011;5090;51.258;4.436;2023-09-18T11:35:33;12.02;;;2.65;;
10100;SDS011;5090;51.258;4.436;2023-09-18T11:38:04;7.28;;;2.70;;
10100;SDS011;5090;51.258;4.436;2023-09-18T11:40:34;6.62;;;2.33;;
10100;SDS011;5090;51.258;4.436;2023-09-18T11:45:36;2.50;;;2.20;;
10100;SDS011;5090;51.258;4.436;2023-09-18T11:48:05;4.75;;;2.28;;
10100;SDS011;5090;51.258;4.436;2023-09-18T11:50:33;5.85;;;2.37;;
10100;SDS011;5090;51.258;4.436;2023-09-18T11:53:01;5.30;;;2.30;;
10100;SDS011;5090;51.258;4.436;2023-09-18T11:55:29;4.85;;;2.42;;
10100;SDS011;5090;51.258;4.436;2023-09-18T11:57:57;2.80;;;2.50;;
10100;SDS011;5090;51.258;4.436;2023-09-18T12:00:26;4.37;;;2.70;;
10100;SDS011;5090;51.258;4.436;2023-09-18T12:02:54;8.25;;;2.62;;
10100;SDS011;5090;51.258;4.436;2023-09-18T12:05:22;3.92;;;2.22;;
10100;SDS011;5090;51.258;4.436;2023-09-18T12:07:50;2.72;;;1.85;;
10100;SDS011;5090;51.258;4.436;2023-09-18T12:10:19;5.95;;;2.60;;
10100;SDS011;5090;51.258;4.436;2023-09-18T12:12:46;4.93;;;1.90;;
10100;SDS011;5090;51.258;4.436;2023-09-18T12:15:17;4.05;;;2.40;;
10100;SDS011;5090;51.258;4.436;2023-09-18T12:17:43;7.82;;;2.30;;
10100;SDS011;5090;51.258;4.436;2023-09-18T12:20:15;4.80;;;2.40;;
10100;SDS011;5090;51.258;4.436;2023-09-18T12:22:46;5.65;;;2.53;;
10100;SDS011;5090;51.258;4.436;2023-09-18T12:25:11;5.60;;;2.58;;
10100;SDS011;5090;51.258;4.436;2023-09-18T12:27:39;4.80;;;2.30;;
10100;SDS011;5090;51.258;4.436;2023-09-18T12:30:07;5.40;;;2.97;;
10100;SDS011;5090;51.258;4.436;2023-09-18T12:32:36;9.55;;;2.85;;
10100;SDS011;5090;51.258;4.436;2023-09-18T12:35:05;6.70;;;2.50;;
10100;SDS011;5090;51.258;4.436;2023-09-18T12:37:33;3.08;;;2.00;;
10100;SDS011;5090;51.258;4.436;2023-09-18T12:40:00;3.80;;;1.80;;
10100;SDS011;5090;51.258;4.436;2023-09-18T12:42:29;14.02;;;3.37;;
10100;SDS011;5090;51.258;4.436;2023-09-18T12:44:57;3.60;;;2.67;;
10100;SDS011;5090;51.258;4.436;2023-09-18T12:47:25;16.98;;;6.80;;
10100;SDS011;5090;51.258;4.436;2023-09-18T12:49:53;8.43;;;2.87;;
10100;SDS011;5090;51.258;4.436;2023-09-18T12:52:22;3.58;;;1.92;;
10100;SDS011;5090;51.258;4.436;2023-09-18T12:54:50;5.03;;;2.12;;
10100;SDS011;5090;51.258;4.436;2023-09-18T12:57:18;4.60;;;2.42;;
10100;SDS011;5090;51.258;4.436;2023-09-18T12:59:46;6.05;;;1.90;;
10100;SDS011;5090;51.258;4.436;2023-09-18T13:02:16;4.15;;;1.98;;
10100;SDS011;5090;51.258;4.436;2023-09-18T13:04:50;7.20;;;2.78;;
10100;SDS011;5090;51.258;4.436;2023-09-18T13:07:12;4.23;;;2.00;;
10100;SDS011;5090;51.258;4.436;2023-09-18T13:09:40;6.15;;;1.92;;
10100;SDS011;5090;51.258;4.436;2023-09-18T13:12:08;7.40;;;2.10;;
10100;SDS011;5090;51.258;4.436;2023-09-18T13:17:10;5.40;;;2.10;;
10100;SDS011;5090;51.258;4.436;2023-09-18T13:19:38;4.07;;;1.70;;
10100;SDS011;5090;51.258;4.436;2023-09-18T13:22:06;8.25;;;1.75;;
10100;SDS011;5090;51.258;4.436;2023-09-18T13:24:34;6.47;;;1.95;;
10100;SDS011;5090;51.258;4.436;2023-09-18T13:27:03;4.30;;;2.00;;
10100;SDS011;5090;51.258;4.436;2023-09-18T13:29:31;7.68;;;2.17;;
10100;SDS011;5090;51.258;4.436;2023-09-18T13:31:59;7.32;;;2.10;;
10100;SDS011;5090;51.258;4.436;2023-09-18T13:34:27;6.78;;;1.75;;
10100;SDS011;5090;51.258;4.436;2023-09-18T13:36:56;2.92;;;1.80;;
10100;SDS011;5090;51.258;4.436;2023-09-18T13:39:25;5.60;;;1.37;;
10100;SDS011;5090;51.258;4.436;2023-09-18T13:41:53;5.37;;;1.60;;
10100;SDS011;5090;51.258;4.436;2023-09-18T13:44:21;7.35;;;1.70;;
10100;SDS011;5090;51.258;4.436;2023-09-18T13:46:50;5.72;;;1.95;;
10100;SDS011;5090;51.258;4.436;2023-09-18T13:49:18;6.12;;;1.70;;
10100;SDS011;5090;51.258;4.436;2023-09-18T13:51:46;3.45;;;1.42;;
10100;SDS011;5090;51.258;4.436;2023-09-18T13:54:15;5.25;;;1.62;;
10100;SDS011;5090;51.258;4.436;2023-09-18T13:56:44;6.80;;;1.80;;
10100;SDS011;5090;51.258;4.436;2023-09-18T13:59:12;4.57;;;1.70;;
10100;SDS011;5090;51.258;4.436;2023-09-18T14:01:40;3.90;;;1.42;;
10100;SDS011;5090;51.258;4.436;2023-09-18T14:04:08;3.72;;;1.58;;
10100;SDS011;5090;51.258;4.436;2023-09-18T14:06:36;5.30;;;1.50;;
10100;SDS011;5090;51.258;4.436;2023-09-18T14:09:04;8.10;;;2.00;;
10100;SDS011;5090;51.258;4.436;2023-09-18T14:11:33;4.45;;;1.48;;
10100;SDS011;5090;51.258;4.436;2023-09-18T14:14:01;6.65;;;1.60;;
10100;SDS011;5090;51.258;4.436;2023-09-18T14:16:29;7.43;;;1.52;;
10100;SDS011;5090;51.258;4.436;2023-09-18T14:18:57;7.65;;;1.77;;
10100;SDS011;5090;51.258;4.436;2023-09-18T14:21:25;7.12;;;1.67;;
10100;SDS011;5090;51.258;4.436;2023-09-18T14:23:54;8.02;;;1.70;;
10100;SDS011;5090;51.258;4.436;2023-09-18T14:26:26;5.00;;;1.77;;
10100;SDS011;5090;51.258;4.436;2023-09-18T14:28:54;9.73;;;1.75;;
10100;SDS011;5090;51.258;4.436;2023-09-18T14:31:22;4.90;;;1.67;;
10100;SDS011;5090;51.258;4.436;2023-09-18T14:33:50;12.70;;;1.85;;
10100;SDS011;5090;51.258;4.436;2023-09-18T14:36:19;3.62;;;1.42;;
10100;SDS011;5090;51.258;4.436;2023-09-18T14:38:47;2.90;;;1.40;;
10100;SDS011;5090;51.258;4.436;2023-09-18T14:41:19;3.42;;;1.40;;
10100;SDS011;5090;51.258;4.436;2023-09-18T14:43:47;5.90;;;1.77;;
10100;SDS011;5090;51.258;4.436;2023-09-18T14:46:16;3.65;;;1.60;;
10100;SDS011;5090;51.258;4.436;2023-09-18T14:48:44;2.55;;;1.37;;
10100;SDS011;5090;51.258;4.436;2023-09-18T14:51:13;5.67;;;2.03;;
10100;SDS011;5090;51.258;4.436;2023-09-18T14:53:42;3.47;;;2.25;;
10100;SDS011;5090;51.258;4.436;2023-09-18T14:56:10;6.15;;;2.10;;
10100;SDS011;5090;51.258;4.436;2023-09-18T14:58:40;5.97;;;1.90;;
10100;SDS011;5090;51.258;4.436;2023-09-18T15:01:08;2.30;;;1.75;;
10100;SDS011;5090;51.258;4.436;2023-09-18T15:03:36;3.97;;;2.55;;
10100;SDS011;5090;51.258;4.436;2023-09-18T15:06:04;5.68;;;2.00;;
10100;SDS011;5090;51.258;4.436;2023-09-18T15:08:33;5.95;;;2.40;;
10100;SDS011;5090;51.258;4.436;2023-09-18T15:11:01;4.55;;;2.05;;
10100;SDS011;5090;51.258;4.436;2023-09-18T15:13:30;5.70;;;2.35;;
10100;SDS011;5090;51.258;4.436;2023-09-18T15:16:06;4.72;;;1.98;;
10100;SDS011;5090;51.258;4.436;2023-09-18T15:18:57;4.12;;;2.10;;